createdAt,value
2023-04-03T00:01:41.305Z,99023.85
2023-04-03T00:04:48.113Z,99021.45
2023-04-03T00:07:55.014Z,99019.02
2023-04-03T00:11:01.032Z,99017.45
2023-04-03T00:14:06.498Z,99025.56
2023-04-03T00:17:13.339Z,99015.53
2023-04-03T00:20:20.685Z,99005.86
2023-04-03T00:23:26.101Z,99006.82
2023-04-03T00:26:32.449Z,98996.23
2023-04-03T00:29:39.044Z,98993.16
2023-04-03T00:32:44.570Z,98996.71
2023-04-03T00:35:51.044Z,98989.91
2023-04-03T00:38:57.378Z,98987.35
2023-04-03T00:42:05.421Z,98980.55
2023-04-03T00:45:11.873Z,98979.08
2023-04-03T00:48:19.912Z,98967.84
2023-04-03T00:51:31.817Z,98973.36
2023-04-03T00:54:37.017Z,98970.63
2023-04-03T00:57:42.943Z,98966.23
2023-04-03T01:00:48.723Z,98960.86
2023-04-03T01:03:55.164Z,98954.42
2023-04-03T01:07:00.973Z,98953.83
2023-04-03T01:10:10.938Z,98939.06
2023-04-03T01:13:16.796Z,98942.58
2023-04-03T01:16:24.598Z,98954.89
2023-04-03T01:19:30.707Z,98947.97
2023-04-03T01:22:39.655Z,98939.56
2023-04-03T01:25:45.405Z,98939.45
2023-04-03T01:28:51.368Z,98944.53
2023-04-03T01:32:13.556Z,98937.72
2023-04-03T01:35:19.491Z,98933.64
2023-04-03T01:38:25.686Z,98929.41
2023-04-03T01:41:33.875Z,98926.25
2023-04-03T01:44:45.936Z,98920.77
2023-04-03T01:47:51.559Z,98916.88
2023-04-03T01:50:57.991Z,98917.25
2023-04-03T01:54:04.802Z,98911.64
2023-04-03T01:57:10.424Z,98909.83
2023-04-03T02:00:15.073Z,98915.90
2023-04-03T02:03:14.379Z,98908.94
2023-04-03T02:06:20.621Z,98907.11
2023-04-03T02:09:27.447Z,98905.58
2023-04-03T02:12:33.168Z,98906.75
2023-04-03T02:15:39.831Z,98902.59
2023-04-03T02:18:46.596Z,98899.78
2023-04-03T02:21:52.010Z,98899.25
2023-04-03T02:24:59.590Z,98897.47
2023-04-03T02:28:06.281Z,98902.77
2023-04-03T02:31:06.648Z,98895.75
2023-04-03T02:34:14.057Z,98889.94
2023-04-03T02:37:21.372Z,98894.17
2023-04-03T02:40:27.237Z,98890.94
2023-04-03T02:43:32.021Z,98891.66
2023-04-03T02:46:36.975Z,98879.53
2023-04-03T02:49:42.226Z,98888.89
2023-04-03T02:52:41.178Z,98888.53
2023-04-03T02:55:48.220Z,98883.66
2023-04-03T02:58:54.949Z,98884.55
2023-04-03T03:01:55.279Z,98881.19
2023-04-03T03:05:00.821Z,98889.99
2023-04-03T03:08:07.256Z,98871.20
2023-04-03T03:11:13.270Z,98876.31
2023-04-03T03:14:18.828Z,98875.49
2023-04-03T03:17:24.540Z,98874.86
2023-04-03T03:20:30.904Z,98877.84
2023-04-03T03:23:30.138Z,98871.09
2023-04-03T03:26:35.970Z,98861.73
2023-04-03T03:29:42.643Z,98860.38
2023-04-03T03:32:48.132Z,98862.73
2023-04-03T03:35:53.632Z,98853.35
2023-04-03T03:38:59.688Z,98857.23
2023-04-03T03:42:05.701Z,98855.61
2023-04-03T03:45:11.305Z,98860.59
2023-04-03T03:48:16.996Z,98859.17
2023-04-03T03:51:22.212Z,98852.77
2023-04-03T03:54:29.220Z,98856.28
2023-04-03T03:57:36.956Z,98852.37
2023-04-03T04:00:42.363Z,98856.02
2023-04-03T04:03:49.329Z,98851.98
2023-04-03T04:06:56.897Z,98853.09
2023-04-03T04:10:03.434Z,98845.25
2023-04-03T04:13:08.766Z,98853.61
2023-04-03T04:16:14.464Z,98846.61
2023-04-03T04:19:20.392Z,98835.46
2023-04-03T04:22:26.937Z,98847.66
2023-04-03T04:25:25.473Z,98845.97
2023-04-03T04:28:19.799Z,98841.16
2023-04-03T04:31:28.624Z,98838.20
2023-04-03T04:34:35.536Z,98833.72
2023-04-03T04:37:42.074Z,98842.34
2023-04-03T04:40:48.939Z,98833.72
2023-04-03T04:43:55.971Z,98834.64
2023-04-03T04:47:01.284Z,98838.25
2023-04-03T04:50:07.448Z,98834.77
2023-04-03T04:53:14.007Z,98836.25
2023-04-03T04:56:18.670Z,98831.45
2023-04-03T04:59:25.445Z,98833.12
2023-04-03T05:02:31.058Z,98829.42
2023-04-03T05:05:38.524Z,98828.25
2023-04-03T05:08:46.327Z,98829.63
2023-04-03T05:11:52.781Z,98831.75
2023-04-03T05:15:00.339Z,98829.19
2023-04-03T05:18:06.308Z,98831.85
2023-04-03T05:21:12.625Z,98831.50
2023-04-03T05:24:19.453Z,98828.34
2023-04-03T05:27:27.687Z,98829.09
2023-04-03T05:30:33.579Z,98834.94
2023-04-03T05:33:41.290Z,98835.25
2023-04-03T05:36:49.391Z,98836.17
2023-04-03T05:39:54.503Z,98836.39
2023-04-03T05:43:01.978Z,98835.48
2023-04-03T05:46:09.835Z,98838.59
2023-04-03T05:49:09.214Z,98841.25
2023-04-03T05:52:15.198Z,98844.08
2023-04-03T05:55:22.221Z,98845.93
2023-04-03T05:58:29.530Z,98852.15
2023-04-03T06:01:35.887Z,98851.06
2023-04-03T06:04:41.973Z,98847.61
2023-04-03T06:07:47.403Z,98850.82
2023-04-03T06:10:47.576Z,98856.20
2023-04-03T06:13:53.463Z,98854.17
2023-04-03T06:16:59.588Z,98854.44
2023-04-03T06:20:05.606Z,98859.91
2023-04-03T06:23:10.845Z,98860.91
2023-04-03T06:26:16.495Z,98856.30
2023-04-03T06:29:22.042Z,98856.33
2023-04-03T06:32:27.330Z,98859.42
2023-04-03T06:35:34.871Z,98863.36
2023-04-03T06:38:41.240Z,98864.80
2023-04-03T06:41:46.346Z,98866.03
2023-04-03T06:44:55.036Z,98869.12
2023-04-03T06:48:01.192Z,98867.18
2023-04-03T06:51:08.393Z,98876.73
2023-04-03T06:54:07.629Z,98872.37
2023-04-03T06:57:13.623Z,98877.64
2023-04-03T07:00:19.358Z,98877.33
2023-04-03T07:03:27.365Z,98882.23
2023-04-03T07:06:41.278Z,98881.48
2023-04-03T07:09:48.128Z,98887.53
2023-04-03T07:12:53.615Z,98887.80
2023-04-03T07:15:59.757Z,98887.84
2023-04-03T07:19:05.868Z,98893.70
2023-04-03T07:22:11.901Z,98894.58
2023-04-03T07:25:11.894Z,98892.88
2023-04-03T07:28:18.132Z,98903.75
2023-04-03T07:31:27.100Z,98902.91
2023-04-03T07:34:33.223Z,98907.32
2023-04-03T07:37:40.154Z,98903.05
2023-04-03T07:40:46.657Z,98905.91
2023-04-03T07:43:52.347Z,98911.75
2023-04-03T07:46:58.157Z,98917.44
2023-04-03T07:50:04.739Z,98919.86
2023-04-03T07:53:11.460Z,98917.70
2023-04-03T07:56:16.994Z,98926.20
2023-04-03T07:59:22.820Z,98931.38
2023-04-03T08:02:28.105Z,98938.66
2023-04-03T08:05:35.494Z,98941.30
2023-04-03T08:08:43.741Z,98943.02
2023-04-03T08:11:48.209Z,98952.58
2023-04-03T08:14:47.302Z,98953.77
2023-04-03T08:17:53.578Z,98954.64
2023-04-03T08:20:59.451Z,98951.33
2023-04-03T08:24:05.009Z,98961.45
2023-04-03T08:27:09.641Z,98959.65
2023-04-03T08:30:14.312Z,98967.20
2023-04-03T08:33:20.380Z,98970.23
2023-04-03T08:36:34.599Z,98978.97
2023-04-03T08:39:39.731Z,98978.49
2023-04-03T08:43:36.934Z,98979.89
2023-04-03T08:46:57.480Z,98984.03
2023-04-03T08:50:15.412Z,98991.95
2023-04-03T08:53:21.719Z,98990.67
2023-04-03T08:56:27.074Z,99001.20
2023-04-03T08:59:37.508Z,98997.75
2023-04-03T09:02:50.413Z,99007.73
2023-04-03T09:06:20.984Z,99014.66
2023-04-03T09:09:48.268Z,99023.30
2023-04-03T09:12:59.996Z,99027.84
2023-04-03T09:16:06.455Z,99030.56
2023-04-03T09:19:38.103Z,99031.33
2023-04-03T09:22:52.038Z,99027.87
2023-04-03T09:25:49.010Z,99034.69
2023-04-03T09:28:57.021Z,99043.33
2023-04-03T09:32:03.575Z,99056.39
2023-04-03T09:35:20.717Z,99057.64
2023-04-03T09:38:27.118Z,99063.38
2023-04-03T09:41:33.490Z,99070.22
2023-04-03T09:44:34.096Z,99073.53
2023-04-03T09:47:52.017Z,99077.78
2023-04-03T09:51:17.070Z,99085.64
2023-04-03T09:54:48.824Z,99090.88
2023-04-03T09:57:56.952Z,99099.47
2023-04-03T10:01:11.448Z,99097.17
2023-04-03T10:04:33.630Z,99109.14
2023-04-03T10:08:01.780Z,99111.78
2023-04-03T10:11:02.593Z,99116.08
2023-04-03T10:14:17.290Z,99116.53
2023-04-03T10:17:35.260Z,99122.84
2023-04-03T10:20:54.318Z,99126.09
2023-04-03T10:24:05.182Z,99130.08
2023-04-03T10:27:27.798Z,99141.31
2023-04-03T10:30:43.667Z,99145.97
2023-04-03T10:34:07.436Z,99151.53
2023-04-03T10:37:36.395Z,99160.11
2023-04-03T10:41:17.655Z,99169.24
2023-04-03T10:44:53.585Z,99174.56
2023-04-03T10:48:44.021Z,99182.30
2023-04-03T10:52:12.389Z,99179.61
2023-04-03T10:55:42.451Z,99187.84
2023-04-03T10:58:56.337Z,99184.69
2023-04-03T11:02:08.649Z,99191.62
2023-04-03T11:05:34.090Z,99193.58
2023-04-03T11:09:16.562Z,99195.53
2023-04-03T11:12:51.228Z,99199.14
2023-04-03T11:15:57.069Z,99201.18
2023-04-03T11:19:19.496Z,99206.85
2023-04-03T11:22:34.742Z,99204.02
2023-04-03T11:25:42.970Z,99214.42
2023-04-03T11:28:52.378Z,99213.72
2023-04-03T11:32:19.458Z,99215.45
2023-04-03T11:35:27.422Z,99219.61
2023-04-03T11:38:50.230Z,99220.34
2023-04-03T11:42:06.836Z,99226.39
2023-04-03T11:44:56.823Z,99229.67
2023-04-03T11:48:24.817Z,99233.09
2023-04-03T11:51:45.872Z,99232.75
2023-04-03T11:55:02.280Z,99240.22
2023-04-03T11:58:20.770Z,99239.08
2023-04-03T12:01:27.224Z,99250.41
2023-04-03T12:04:34.884Z,99251.68
2023-04-03T12:07:40.760Z,99249.87
2023-04-03T12:10:47.468Z,99253.89
2023-04-03T12:13:56.543Z,99252.08
2023-04-03T12:17:04.502Z,99264.78
2023-04-03T12:20:11.776Z,99261.81
2023-04-03T12:23:51.460Z,99274.31
2023-04-03T12:27:14.080Z,99271.98
2023-04-03T12:30:34.001Z,99276.63
2023-04-03T12:34:02.542Z,99277.92
2023-04-03T12:37:24.302Z,99272.34
2023-04-03T12:41:13.220Z,99272.11
2023-04-03T12:44:57.214Z,99283.15
2023-04-03T12:48:06.426Z,99282.13
2023-04-03T12:51:11.673Z,99280.09
2023-04-03T12:54:30.633Z,99289.09
2023-04-03T12:57:42.962Z,99289.25
2023-04-03T13:00:50.113Z,99298.22
2023-04-03T13:03:59.761Z,99283.62
2023-04-03T13:07:06.458Z,99292.56
2023-04-03T13:10:18.688Z,99296.38
2023-04-03T13:13:26.033Z,99302.67
2023-04-03T13:16:32.516Z,99307.63
2023-04-03T13:19:39.995Z,99314.48
2023-04-03T13:22:50.715Z,99319.16
2023-04-03T13:25:58.688Z,99323.49
2023-04-03T13:29:03.944Z,99329.91
2023-04-03T13:32:10.365Z,99331.19
2023-04-03T13:35:18.626Z,99330.56
2023-04-03T13:38:40.900Z,99334.01
2023-04-03T13:41:46.744Z,99337.26
2023-04-03T13:44:53.594Z,99340.08
2023-04-03T13:48:00.769Z,99343.64
2023-04-03T13:51:16.507Z,99339.70
2023-04-03T13:54:38.026Z,99347.16
2023-04-03T13:57:44.840Z,99349.12
2023-04-03T14:01:02.907Z,99351.70
2023-04-03T14:04:14.491Z,99357.24
2023-04-03T14:07:20.473Z,99361.70
2023-04-03T14:10:26.609Z,99361.91
2023-04-03T14:13:33.114Z,99364.23
2023-04-03T14:16:42.017Z,99361.15
2023-04-03T14:19:49.799Z,99360.84
2023-04-03T14:22:56.654Z,99362.69
2023-04-03T14:29:28.612Z,99373.20
2023-04-03T14:32:35.497Z,99371.84
2023-04-03T14:35:41.879Z,99377.66
2023-04-03T14:38:46.768Z,99378.16
2023-04-03T14:41:53.465Z,99379.66
2023-04-03T14:44:59.252Z,99381.30
2023-04-03T14:48:07.929Z,99385.61
2023-04-03T14:51:13.587Z,99385.09
2023-04-03T14:54:21.115Z,99387.89
2023-04-03T14:57:27.735Z,99392.96
2023-04-03T15:00:35.416Z,99395.63
2023-04-03T15:03:41.284Z,99400.72
2023-04-03T15:06:49.922Z,99404.02
2023-04-03T15:09:56.082Z,99411.03
2023-04-03T15:13:03.715Z,99418.25
2023-04-03T15:16:11.385Z,99417.95
2023-04-03T15:19:18.098Z,99415.86
2023-04-03T15:22:32.982Z,99421.85
2023-04-03T15:25:40.061Z,99431.23
2023-04-03T15:28:44.500Z,99433.33
2023-04-03T15:31:50.459Z,99437.20
2023-04-03T15:34:56.756Z,99445.86
2023-04-03T15:38:03.046Z,99449.23
2023-04-03T15:41:09.351Z,99450.98
2023-04-03T15:44:14.064Z,99454.50
2023-04-03T15:47:19.420Z,99452.73
2023-04-03T15:50:25.094Z,99455.72
2023-04-03T15:53:31.074Z,99464.12
2023-04-03T15:56:37.879Z,99471.91
2023-04-03T15:59:37.985Z,99474.79
2023-04-03T16:02:43.742Z,99482.25
2023-04-03T16:05:49.724Z,99477.58
2023-04-03T16:08:56.318Z,99483.03
2023-04-03T16:12:03.949Z,99484.45
2023-04-03T16:15:11.022Z,99490.06
2023-04-03T16:18:17.796Z,99487.29
2023-04-03T16:21:23.758Z,99498.98
2023-04-03T16:24:29.491Z,99506.06
2023-04-03T16:27:37.417Z,99509.41
2023-04-03T16:30:42.843Z,99521.89
2023-04-03T16:33:48.315Z,99530.30
2023-04-03T16:36:54.658Z,99531.66
2023-04-03T16:40:01.219Z,99534.80
2023-04-03T16:43:06.953Z,99544.99
2023-04-03T16:46:13.019Z,99548.52
2023-04-03T16:49:18.085Z,99553.81
2023-04-03T16:52:24.879Z,99556.91
2023-04-03T16:55:30.966Z,99562.73
2023-04-03T16:58:36.400Z,99561.94
2023-04-03T17:01:41.715Z,99563.13
2023-04-03T17:04:47.060Z,99569.88
2023-04-03T17:07:52.866Z,99574.98
2023-04-03T17:11:00.975Z,99582.24
2023-04-03T17:14:07.409Z,99583.53
2023-04-03T17:17:12.947Z,99586.66
2023-04-03T17:20:18.977Z,99592.45
2023-04-03T17:23:25.692Z,99600.48
2023-04-03T17:26:31.383Z,99601.84
2023-04-03T17:29:37.012Z,99606.14
2023-04-03T17:32:43.325Z,99603.69
2023-04-03T17:35:49.760Z,99616.44
2023-04-03T17:38:56.029Z,99619.82
2023-04-03T17:42:02.714Z,99629.83
2023-04-03T17:45:09.691Z,99633.89
2023-04-03T17:48:15.852Z,99636.36
2023-04-03T17:51:27.744Z,99637.73
2023-04-03T17:54:33.421Z,99644.42
2023-04-03T17:57:39.376Z,99643.28
2023-04-03T18:00:44.818Z,99654.22
2023-04-03T18:03:50.693Z,99659.38
2023-04-03T18:07:02.168Z,99658.48
2023-04-03T18:10:07.818Z,99653.77
2023-04-03T18:13:15.960Z,99659.58
2023-04-03T18:16:24.477Z,99660.45
2023-04-03T18:19:30.230Z,99662.16
2023-04-03T18:22:36.435Z,99655.86
2023-04-03T18:25:41.475Z,99660.50
2023-04-03T18:28:48.505Z,99659.27
2023-04-03T18:31:56.353Z,99661.78
2023-04-03T18:35:01.866Z,99662.08
2023-04-03T18:38:08.045Z,99661.30
2023-04-03T18:41:14.701Z,99658.13
2023-04-03T18:44:22.124Z,99659.67
2023-04-03T18:47:27.960Z,99667.84
2023-04-03T18:50:33.085Z,99672.66
2023-04-03T18:56:46.996Z,99681.49
2023-04-03T18:59:53.653Z,99684.77
2023-04-03T19:03:00.973Z,99693.83
2023-04-03T19:05:59.401Z,99689.68
2023-04-03T19:08:52.282Z,99697.03
2023-04-03T19:11:57.278Z,99703.50
2023-04-03T19:18:11.113Z,99714.94
2023-04-03T19:21:19.014Z,99715.45
2023-04-03T19:24:26.717Z,99712.03
2023-04-03T19:27:33.236Z,99715.16
2023-04-03T19:30:40.366Z,99717.16
2023-04-03T19:33:48.487Z,99719.22
2023-04-03T19:36:57.432Z,99717.23
2023-04-03T19:40:03.884Z,99718.69
2023-04-03T19:43:10.832Z,99721.58
2023-04-03T19:46:16.441Z,99721.58
2023-04-03T19:49:21.664Z,99724.65
2023-04-03T19:52:19.616Z,99726.31
2023-04-03T19:55:25.132Z,99730.83
2023-04-03T19:58:31.711Z,99739.77
2023-04-03T20:01:37.627Z,99729.89
2023-04-03T20:04:44.843Z,99727.81
2023-04-03T20:07:51.323Z,99736.19
2023-04-03T20:10:58.100Z,99736.80
2023-04-03T20:14:05.759Z,99735.75
2023-04-03T20:17:11.449Z,99740.28
2023-04-03T20:20:17.173Z,99744.05
2023-04-03T20:23:23.393Z,99749.13
2023-04-03T20:26:35.109Z,99744.52
2023-04-03T20:29:41.921Z,99746.06
2023-04-03T20:32:48.790Z,99749.45
2023-04-03T20:35:54.968Z,99746.91
2023-04-03T20:39:02.829Z,99742.16
2023-04-03T20:42:10.313Z,99741.45
2023-04-03T20:45:15.950Z,99755.27
2023-04-03T20:48:23.637Z,99747.11
2023-04-03T20:51:31.847Z,99751.73
2023-04-03T20:54:38.354Z,99758.76
2023-04-03T20:57:44.407Z,99757.39
2023-04-03T21:00:51.271Z,99748.70
2023-04-03T21:03:58.109Z,99746.09
2023-04-03T21:07:59.822Z,99757.45
2023-04-03T21:11:54.316Z,99758.15
2023-04-03T21:16:06.867Z,99766.34
2023-04-03T21:19:34.472Z,99768.89
2023-04-03T21:22:40.370Z,99780.86
2023-04-03T21:25:46.331Z,99786.84
2023-04-03T21:28:52.173Z,99783.12
2023-04-03T21:32:12.196Z,99786.52
2023-04-03T21:35:16.680Z,99788.07
2023-04-03T21:38:22.600Z,99788.26
2023-04-03T21:41:29.362Z,99790.61
2023-04-03T21:44:35.540Z,99793.16
2023-04-03T21:47:42.614Z,99799.66
2023-04-03T21:50:48.517Z,99795.05
2023-04-03T21:53:54.541Z,99802.05
2023-04-03T21:57:00.439Z,99804.59
2023-04-03T22:00:05.992Z,99814.97
2023-04-03T22:03:12.113Z,99815.50
2023-04-03T22:06:20.230Z,99821.61
2023-04-03T22:09:27.150Z,99822.65
2023-04-03T22:12:34.505Z,99821.28
2023-04-03T22:15:40.506Z,99827.20
2023-04-03T22:18:47.728Z,99836.27
2023-04-03T22:21:54.515Z,99835.95
2023-04-03T22:25:00.316Z,99834.73
2023-04-03T22:28:07.254Z,99837.62
2023-04-03T22:31:21.394Z,99839.67
2023-04-03T22:34:28.357Z,99829.80
2023-04-03T22:37:34.115Z,99823.00
2023-04-03T22:40:41.422Z,99824.69
2023-04-03T22:43:48.983Z,99824.69
2023-04-03T22:46:57.769Z,99823.34
2023-04-03T22:50:04.146Z,99824.52
2023-04-03T22:53:09.521Z,99824.04
2023-04-03T22:56:16.905Z,99829.30
2023-04-03T22:59:23.326Z,99826.58
2023-04-03T23:02:30.466Z,99833.58
2023-04-03T23:05:35.661Z,99839.87
2023-04-03T23:08:48.807Z,99832.55
2023-04-03T23:11:54.012Z,99834.23
2023-04-03T23:14:59.001Z,99841.05
2023-04-03T23:18:05.687Z,99839.69
2023-04-03T23:21:14.187Z,99845.13
2023-04-03T23:24:20.253Z,99848.19
2023-04-03T23:27:27.612Z,99848.05
2023-04-03T23:30:33.040Z,99844.62
2023-04-03T23:33:40.442Z,99844.29
2023-04-03T23:36:46.558Z,99853.67
2023-04-03T23:39:52.371Z,99852.98
2023-04-03T23:42:58.998Z,99860.30
2023-04-03T23:46:05.351Z,99860.45
2023-04-03T23:49:12.210Z,99862.00
2023-04-03T23:52:17.683Z,99859.78
2023-04-03T23:55:23.787Z,99857.39
2023-04-03T23:58:28.972Z,99857.58
